Time;durP1;ratioP1;P1;durP2;ratioP2;P2;SDS_P1;SDS_P2;PMS_P1;PMS_P2;Temp;Humidity;BMP_temperature;BMP_pressure;BME280_temperature;BME280_humidity;BME280_pressure;Samples;Min_cycle;Max_cycle;Signal;HPM_P1;HPM_P2
2021/03/01 00:00:19;;;;;;;23.07;15.47;;;7.10;99.90;;;;;;5126729;28;20163;-66
2021/03/01 00:02:45;;;;;;;28.27;16.37;;;7.10;99.90;;;;;;5128883;28;20159;-66
2021/03/01 00:05:13;;;;;;;24.00;16.90;;;7.10;99.90;;;;;;5129486;28;20162;-66
2021/03/01 00:07:39;;;;;;;25.07;16.10;;;7.10;99.90;;;;;;5128200;28;20159;-66
2021/03/01 00:10:06;;;;;;;27.27;16.33;;;7.00;99.90;;;;;;5126386;28;20158;-66
2021/03/01 00:12:31;;;;;;;23.00;15.90;;;7.00;99.90;;;;;;5129190;28;20166;-66
2021/03/01 00:14:57;;;;;;;27.60;17.23;;;7.00;99.90;;;;;;5129157;28;20253;-66
2021/03/01 00:17:22;;;;;;;23.07;16.50;;;7.00;99.90;;;;;;5129091;28;20170;-66
2021/03/01 00:19:48;;;;;;;25.77;17.07;;;7.00;99.90;;;;;;5125933;28;20395;-66
2021/03/01 00:22:14;;;;;;;22.27;16.83;;;6.90;99.90;;;;;;5128995;28;20175;-66
2021/03/01 00:24:39;;;;;;;27.00;17.60;;;6.90;99.90;;;;;;5128687;28;20605;-66
2021/03/01 00:27:05;;;;;;;30.07;17.60;;;6.90;99.90;;;;;;5128746;28;20206;-65
2021/03/01 00:29:31;;;;;;;27.97;16.77;;;6.90;99.90;;;;;;5127563;28;20330;-66
2021/03/01 00:31:56;;;;;;;26.03;16.53;;;6.90;99.90;;;;;;5127061;28;20174;-66
2021/03/01 00:34:22;;;;;;;26.80;17.57;;;6.80;99.90;;;;;;5128527;28;20167;-66
2021/03/01 00:36:48;;;;;;;22.60;17.10;;;6.80;99.90;;;;;;5128624;28;20193;-66
2021/03/01 00:39:13;;;;;;;24.63;17.00;;;6.80;99.90;;;;;;5128591;28;20184;-66
2021/03/01 00:41:39;;;;;;;27.80;17.67;;;6.80;99.90;;;;;;5125809;28;20171;-66
2021/03/01 00:44:04;;;;;;;24.47;16.97;;;6.70;99.90;;;;;;5128673;28;20166;-65
2021/03/01 00:46:30;;;;;;;21.53;17.03;;;6.70;99.90;;;;;;5128440;28;20170;-66
2021/03/01 00:48:55;;;;;;;22.70;16.27;;;6.60;99.90;;;;;;5127992;28;20540;-66
2021/03/01 00:51:21;;;;;;;30.27;16.97;;;6.60;99.90;;;;;;5125903;28;20163;-66
2021/03/01 00:53:47;;;;;;;26.10;18.20;;;6.60;99.90;;;;;;5128289;28;20159;-66
2021/03/01 00:56:12;;;;;;;25.47;17.23;;;6.60;99.90;;;;;;5128358;28;20167;-65
2021/03/01 00:58:38;;;;;;;26.30;17.50;;;6.50;99.90;;;;;;5128144;28;20187;-65
2021/03/01 01:01:03;;;;;;;27.70;16.47;;;6.60;99.90;;;;;;5125730;28;20204;-66
2021/03/01 01:03:29;;;;;;;25.93;16.80;;;6.50;99.90;;;;;;5126372;28;20644;-66
2021/03/01 01:05:55;;;;;;;27.83;17.53;;;6.50;99.90;;;;;;5128281;28;20292;-66
2021/03/01 01:08:20;;;;;;;21.90;16.33;;;6.40;99.90;;;;;;5127909;28;20182;-66
2021/03/01 01:10:46;;;;;;;23.00;16.90;;;6.40;99.90;;;;;;5123788;28;20753;-66
2021/03/01 01:13:11;;;;;;;24.87;17.37;;;6.40;99.90;;;;;;5127910;28;20155;-66
2021/03/01 01:15:37;;;;;;;27.43;17.97;;;6.30;99.90;;;;;;5127711;28;20155;-66
2021/03/01 01:18:05;;;;;;;23.53;17.70;;;6.20;99.90;;;;;;5127661;27;20175;-65
2021/03/01 01:20:31;;;;;;;24.90;18.23;;;6.20;99.90;;;;;;5124672;28;20170;-66
2021/03/01 01:22:56;;;;;;;28.07;18.73;;;6.20;99.90;;;;;;5127619;28;20179;-66
2021/03/01 01:25:22;;;;;;;28.47;18.27;;;6.20;99.90;;;;;;5126307;28;20170;-65
2021/03/01 01:27:48;;;;;;;30.40;18.17;;;6.30;99.90;;;;;;5126587;28;20309;-65
2021/03/01 01:30:17;;;;;;;29.30;17.90;;;6.20;99.90;;;;;;5124738;28;20642;-66
2021/03/01 01:32:43;;;;;;;27.50;19.10;;;6.10;99.90;;;;;;5127090;28;20166;-65
2021/03/01 01:35:10;;;;;;;31.33;18.60;;;6.10;99.90;;;;;;5127303;28;20163;-65
2021/03/01 01:37:37;;;;;;;29.47;18.67;;;6.10;99.90;;;;;;5127062;28;20165;-65
2021/03/01 01:40:04;;;;;;;27.52;19.35;;;6.00;99.90;;;;;;5124600;28;20517;-66
2021/03/01 01:42:30;;;;;;;28.97;19.07;;;6.10;99.90;;;;;;5127088;28;20163;-65
2021/03/01 01:44:57;;;;;;;31.00;20.80;;;6.10;99.90;;;;;;5125844;28;20171;-66
2021/03/01 01:47:22;;;;;;;28.23;19.20;;;6.10;99.90;;;;;;5127215;28;20171;-66
2021/03/01 01:49:48;;;;;;;30.57;20.23;;;6.10;99.90;;;;;;5123966;28;20208;-66
2021/03/01 01:52:14;;;;;;;27.83;19.90;;;6.10;99.90;;;;;;5127112;28;20159;-66
2021/03/01 01:54:41;;;;;;;33.40;20.87;;;6.00;99.90;;;;;;5126968;28;20184;-65
2021/03/01 01:57:07;;;;;;;29.83;20.67;;;6.00;99.90;;;;;;5127132;28;20254;-66
2021/03/01 01:59:32;;;;;;;28.13;20.00;;;6.00;99.90;;;;;;5125748;28;20167;-66
2021/03/01 02:01:58;;;;;;;32.43;21.00;;;6.00;99.90;;;;;;5125575;28;20170;-66
2021/03/01 02:04:29;;;;;;;33.47;21.63;;;6.00;99.90;;;;;;5126493;28;20193;-66
2021/03/01 02:07:06;;;;;;;40.10;21.33;;;6.00;99.90;;;;;;5126957;28;20171;-66
2021/03/01 02:10:04;;;;;;;30.97;20.47;;;6.00;99.90;;;;;;5125547;28;20201;-65
2021/03/01 02:12:50;;;;;;;25.90;20.43;;;5.90;99.90;;;;;;5126633;28;20230;-65
2021/03/01 02:15:27;;;;;;;36.30;21.00;;;5.90;99.90;;;;;;5126541;28;20163;-65
2021/03/01 02:17:53;;;;;;;27.43;21.53;;;5.90;99.90;;;;;;5126217;28;20186;-65
2021/03/01 02:20:18;;;;;;;29.57;20.90;;;5.90;99.90;;;;;;5123914;28;20537;-66
2021/03/01 02:22:44;;;;;;;29.20;19.07;;;5.90;99.90;;;;;;5126468;28;20273;-66
2021/03/01 02:25:17;;;;;;;38.70;20.83;;;5.80;99.90;;;;;;5126403;28;20166;-65
2021/03/01 02:27:52;;;;;;;30.63;20.13;;;5.70;99.90;;;;;;5126092;28;20680;-66
2021/03/01 02:30:24;;;;;;;33.30;20.90;;;5.70;99.90;;;;;;5123635;28;20166;-66
2021/03/01 02:32:55;;;;;;;30.40;20.50;;;5.70;99.90;;;;;;5125900;28;20155;-66
2021/03/01 02:35:22;;;;;;;31.53;20.83;;;5.60;99.90;;;;;;5126525;28;20162;-65
2021/03/01 02:37:49;;;;;;;32.60;21.27;;;5.60;99.90;;;;;;5126139;28;20158;-65
2021/03/01 02:40:19;;;;;;;30.53;19.63;;;5.60;99.90;;;;;;5123754;28;20158;-66
2021/03/01 02:42:45;;;;;;;28.40;19.57;;;5.60;99.90;;;;;;5125106;28;20719;-66
2021/03/01 02:45:12;;;;;;;24.30;18.57;;;5.50;99.90;;;;;;5126217;28;20222;-66
2021/03/01 02:47:39;;;;;;;28.70;19.53;;;5.40;99.90;;;;;;5126066;28;20158;-65
2021/03/01 02:50:06;;;;;;;31.37;19.43;;;5.30;99.90;;;;;;5123412;28;20438;-65
2021/03/01 02:52:33;;;;;;;31.57;20.23;;;5.30;99.90;;;;;;5126134;28;20147;-66
2021/03/01 02:55:00;;;;;;;30.63;20.57;;;5.30;99.90;;;;;;5126297;28;20162;-65
2021/03/01 02:57:26;;;;;;;27.70;20.73;;;5.30;99.90;;;;;;5126102;28;20155;-65
2021/03/01 02:59:56;;;;;;;30.73;21.30;;;5.30;99.90;;;;;;5122097;28;20178;-66
2021/03/01 03:02:24;;;;;;;33.47;22.03;;;5.30;99.90;;;;;;5126207;28;20190;-65
2021/03/01 03:04:52;;;;;;;36.27;21.83;;;5.20;99.90;;;;;;5125705;28;20170;-65
2021/03/01 03:07:18;;;;;;;30.97;21.70;;;5.20;99.90;;;;;;5126146;28;20178;-65
2021/03/01 03:09:45;;;;;;;32.50;22.50;;;5.20;99.90;;;;;;5123428;28;20571;-66
2021/03/01 03:12:13;;;;;;;33.10;22.23;;;5.20;99.90;;;;;;5125877;28;20689;-65
2021/03/01 03:14:40;;;;;;;33.63;20.67;;;5.30;99.90;;;;;;5125759;28;20159;-65
2021/03/01 03:17:05;;;;;;;31.17;22.97;;;5.20;99.90;;;;;;5126105;28;20624;-65
2021/03/01 03:19:31;;;;;;;38.23;22.73;;;5.20;99.90;;;;;;5124587;28;20254;-65
2021/03/01 03:21:58;;;;;;;33.53;22.23;;;5.20;99.90;;;;;;5124321;28;20170;-66
2021/03/01 03:24:24;;;;;;;38.80;23.80;;;5.20;99.90;;;;;;5125753;28;20171;-65
2021/03/01 03:26:49;;;;;;;36.13;24.93;;;5.20;99.90;;;;;;5125893;28;20238;-66
2021/03/01 03:29:15;;;;;;;38.30;25.27;;;5.10;99.90;;;;;;5125694;28;20190;-66
2021/03/01 03:31:41;;;;;;;45.70;26.67;;;5.10;99.90;;;;;;5123104;28;20195;-66
2021/03/01 03:34:07;;;;;;;37.30;25.43;;;5.10;99.90;;;;;;5125366;28;20224;-66
2021/03/01 03:36:39;;;;;;;39.57;25.63;;;5.10;99.90;;;;;;5124299;28;20162;-65
2021/03/01 03:39:14;;;;;;;47.37;25.97;;;5.10;99.90;;;;;;5125651;28;20163;-65
2021/03/01 03:41:41;;;;;;;36.73;25.90;;;5.10;99.90;;;;;;5122894;28;20179;-65
2021/03/01 03:44:09;;;;;;;40.47;26.13;;;5.10;99.90;;;;;;5129404;28;20300;-66
2021/03/01 03:46:35;;;;;;;40.90;27.77;;;5.20;99.90;;;;;;5129520;28;20158;-66
2021/03/01 03:49:02;;;;;;;41.87;28.00;;;5.20;99.90;;;;;;5127771;28;20198;-65
2021/03/01 03:51:30;;;;;;;45.57;27.67;;;5.10;99.90;;;;;;5126766;28;20166;-66
2021/03/01 03:54:00;;;;;;;44.07;28.13;;;5.10;99.90;;;;;;5127889;28;20167;-66
2021/03/01 03:56:28;;;;;;;44.17;28.00;;;5.00;99.90;;;;;;5129041;27;20241;-66
2021/03/01 03:59:04;;;;;;;46.70;27.83;;;5.00;99.90;;;;;;5129233;28;20174;-65
2021/03/01 04:01:32;;;;;;;42.77;28.50;;;5.00;99.90;;;;;;5126461;28;20654;-66
2021/03/01 04:04:03;;;;;;;42.80;27.63;;;4.90;99.90;;;;;;5128974;28;20170;-66
2021/03/01 04:06:32;;;;;;;45.17;27.70;;;4.90;99.90;;;;;;5129020;28;20167;-66
2021/03/01 04:08:59;;;;;;;46.73;28.73;;;4.90;99.90;;;;;;5128878;28;20187;-65
2021/03/01 04:11:26;;;;;;;45.77;29.60;;;4.80;99.90;;;;;;5126352;28;20173;-66
2021/03/01 04:13:56;;;;;;;50.47;29.77;;;4.80;99.90;;;;;;5129219;28;20375;-65
2021/03/01 04:16:23;;;;;;;45.47;30.33;;;4.90;99.90;;;;;;5128939;28;20181;-66
2021/03/01 04:18:56;;;;;;;44.07;29.83;;;4.80;99.90;;;;;;5127234;28;20185;-65
2021/03/01 04:21:25;;;;;;;47.30;31.80;;;4.80;99.90;;;;;;5126419;28;20167;-65
2021/03/01 04:23:52;;;;;;;53.83;31.53;;;4.80;99.90;;;;;;5128829;28;20162;-65
2021/03/01 04:26:19;;;;;;;53.70;32.97;;;4.80;99.90;;;;;;5128631;28;20191;-64
2021/03/01 04:28:45;;;;;;;49.17;31.63;;;4.80;99.90;;;;;;5128446;28;20218;-64
2021/03/01 04:31:11;;;;;;;51.50;31.93;;;4.80;99.90;;;;;;5124619;28;20169;-65
2021/03/01 04:33:38;;;;;;;48.90;31.43;;;4.80;99.90;;;;;;5128262;28;20166;-65
2021/03/01 04:36:05;;;;;;;52.57;34.33;;;4.80;99.90;;;;;;5127407;28;20590;-64
2021/03/01 04:38:32;;;;;;;51.47;33.33;;;4.80;99.90;;;;;;5128047;28;20170;-65
2021/03/01 04:40:58;;;;;;;54.07;34.60;;;4.80;99.90;;;;;;5125923;28;20158;-64
2021/03/01 04:43:26;;;;;;;53.10;33.07;;;4.80;99.90;;;;;;5128475;28;20259;-64
2021/03/01 04:45:53;;;;;;;55.80;33.27;;;4.80;99.90;;;;;;5128433;28;20178;-64
2021/03/01 04:48:21;;;;;;;59.33;35.17;;;4.80;99.90;;;;;;5127652;28;20273;-64
2021/03/01 04:50:49;;;;;;;57.80;35.95;;;4.80;99.90;;;;;;5125353;28;20817;-64
2021/03/01 04:53:15;;;;;;;54.63;34.83;;;4.80;99.90;;;;;;5128210;28;20159;-64
2021/03/01 04:55:42;;;;;;;54.70;35.27;;;4.80;99.90;;;;;;5127252;28;20159;-64
2021/03/01 04:58:08;;;;;;;51.93;35.07;;;4.90;99.90;;;;;;5127925;28;20190;-64
2021/03/01 05:00:35;;;;;;;57.95;35.90;;;4.80;99.90;;;;;;5123852;28;20940;-65
2021/03/01 05:03:01;;;;;;;56.87;34.53;;;4.90;99.90;;;;;;5127570;28;20169;-65
2021/03/01 05:05:27;;;;;;;58.70;34.40;;;4.90;99.90;;;;;;5127848;28;20166;-64
2021/03/01 05:07:57;;;;;;;56.30;34.63;;;4.90;99.90;;;;;;5127840;28;20533;-65
2021/03/01 05:10:23;;;;;;;59.28;40.22;;;4.90;99.90;;;;;;5124348;28;20418;-65
2021/03/01 05:12:49;;;;;;;54.37;36.90;;;5.00;99.90;;;;;;5127961;28;20155;-65
2021/03/01 05:15:14;;;;;;;59.80;37.50;;;5.00;99.90;;;;;;5127704;28;20194;-65
2021/03/01 05:17:40;;;;;;;62.13;39.77;;;5.10;99.90;;;;;;5127475;28;20407;-65
2021/03/01 05:20:06;;;;;;;63.70;37.30;;;5.30;99.90;;;;;;5124744;28;20171;-65
2021/03/01 05:22:32;;;;;;;60.87;36.90;;;5.30;99.90;;;;;;5127638;28;20537;-65
2021/03/01 05:24:57;;;;;;;67.30;39.60;;;5.40;99.90;;;;;;5127584;28;20162;-65
2021/03/01 05:27:23;;;;;;;74.60;41.30;;;5.50;99.90;;;;;;5127611;28;20215;-65
2021/03/01 05:29:49;;;;;;;73.47;41.37;;;5.50;99.90;;;;;;5123330;28;20703;-65
2021/03/01 05:32:14;;;;;;;84.00;43.60;;;5.60;99.90;;;;;;5127438;28;20166;-65
2021/03/01 05:34:40;;;;;;;83.63;44.77;;;5.60;99.90;;;;;;5126793;28;20175;-65
2021/03/01 05:37:06;;;;;;;91.13;44.17;;;5.70;99.90;;;;;;5127256;28;20167;-65
2021/03/01 05:39:31;;;;;;;97.97;46.70;;;5.80;99.90;;;;;;5126411;28;20249;-65
2021/03/01 05:41:58;;;;;;;91.37;46.00;;;5.50;99.90;;;;;;5124308;28;20196;-65
2021/03/01 05:44:25;;;;;;;88.10;43.83;;;5.60;99.90;;;;;;5127202;28;20181;-65
2021/03/01 05:46:54;;;;;;;91.00;44.63;;;5.60;99.90;;;;;;5125555;28;20166;-65
2021/03/01 05:49:21;;;;;;;87.67;45.60;;;5.60;99.90;;;;;;5126585;28;20198;-65
2021/03/01 05:51:50;;;;;;;86.03;43.17;;;5.60;99.90;;;;;;5124031;28;20162;-65
2021/03/01 05:54:19;;;;;;;89.23;44.43;;;5.70;99.90;;;;;;5125344;28;20503;-65
2021/03/01 05:56:47;;;;;;;82.20;43.00;;;5.70;99.90;;;;;;5126625;28;20183;-65
2021/03/01 05:59:13;;;;;;;82.07;42.87;;;6.00;99.90;;;;;;5126522;28;20654;-66
2021/03/01 06:01:40;;;;;;;78.10;42.03;;;6.00;99.90;;;;;;5122745;28;20174;-65
2021/03/01 06:04:06;;;;;;;78.47;42.63;;;6.00;99.90;;;;;;5126863;28;20166;-65
2021/03/01 06:06:32;;;;;;;77.80;42.83;;;6.10;99.90;;;;;;5124713;28;20317;-65
2021/03/01 06:08:57;;;;;;;82.40;41.27;;;5.80;99.90;;;;;;5126924;28;20201;-66
2021/03/01 06:11:23;;;;;;;95.00;43.50;;;5.90;99.90;;;;;;5124368;28;20647;-65
2021/03/01 06:13:49;;;;;;;85.40;42.43;;;5.70;99.90;;;;;;5127095;28;20204;-65
2021/03/01 06:16:14;;;;;;;76.83;42.63;;;5.70;99.90;;;;;;5126784;28;20724;-65
2021/03/01 06:18:44;;;;;;;87.70;43.47;;;5.60;99.90;;;;;;5126235;28;20198;-66
2021/03/01 06:21:13;;;;;;;85.80;43.87;;;5.50;99.90;;;;;;5124112;28;20627;-65
2021/03/01 06:23:40;;;;;;;88.20;44.50;;;5.60;99.90;;;;;;5126556;28;20166;-65
2021/03/01 06:26:35;;;;;;;91.83;47.33;;;5.50;99.90;;;;;;5126567;28;20182;-65
2021/03/01 06:29:03;;;;;;;93.77;46.60;;;5.60;99.90;;;;;;5126338;28;20258;-65
2021/03/01 06:31:34;;;;;;;98.70;48.30;;;5.50;99.90;;;;;;5123552;28;20215;-65
2021/03/01 06:34:24;;;;;;;106.47;58.23;;;5.80;99.90;;;;;;5125004;28;20907;-65
2021/03/01 06:37:09;;;;;;;102.07;51.53;;;5.70;99.90;;;;;;5126777;28;20757;-65
2021/03/01 06:39:55;;;;;;;103.87;50.57;;;5.70;99.90;;;;;;5124858;28;20575;-65
2021/03/01 06:42:30;;;;;;;112.10;57.43;;;5.80;99.90;;;;;;5125760;28;20835;-65
2021/03/01 06:44:58;;;;;;;116.63;54.57;;;5.90;99.90;;;;;;5126167;28;20162;-65
2021/03/01 06:47:43;;;;;;;120.37;53.67;;;6.10;99.90;;;;;;5126330;28;20191;-65
2021/03/01 06:50:45;;;;;;;122.40;56.47;;;6.00;99.90;;;;;;5123123;28;20509;-65
2021/03/01 06:53:11;;;;;;;124.13;54.77;;;5.80;99.90;;;;;;5126138;28;20162;-65
2021/03/01 06:55:38;;;;;;;114.83;52.70;;;5.60;99.90;;;;;;5125973;28;20242;-65
2021/03/01 06:58:16;;;;;;;118.90;53.40;;;5.60;99.90;;;;;;5125938;28;20181;-65
2021/03/01 07:00:42;;;;;;;124.50;51.80;;;5.60;99.90;;;;;;5123406;28;20162;-64
2021/03/01 07:03:21;;;;;;;118.47;53.70;;;5.50;99.90;;;;;;5125832;28;20166;-64
2021/03/01 07:05:51;;;;;;;130.60;55.63;;;5.50;99.90;;;;;;5125968;28;20178;-64
2021/03/01 07:08:35;;;;;;;141.73;55.23;;;5.60;99.90;;;;;;5125953;28;20194;-65
2021/03/01 07:11:03;;;;;;;125.67;53.63;;;5.60;99.90;;;;;;5123481;28;20158;-65
2021/03/01 07:13:30;;;;;;;130.27;54.23;;;5.40;99.90;;;;;;5125796;28;20220;-65
2021/03/01 07:15:58;;;;;;;134.53;55.00;;;5.30;99.90;;;;;;5125855;28;20158;-64
2021/03/01 07:18:26;;;;;;;129.10;54.10;;;5.40;99.90;;;;;;5128097;28;20701;-65
2021/03/01 07:20:52;;;;;;;138.67;55.43;;;5.50;99.90;;;;;;5127307;28;20169;-65
2021/03/01 07:23:18;;;;;;;126.03;54.20;;;5.60;99.90;;;;;;5130114;28;20174;-65
2021/03/01 07:25:45;;;;;;;121.67;52.53;;;5.70;99.90;;;;;;5129891;28;20167;-65
2021/03/01 07:28:13;;;;;;;125.50;50.87;;;5.80;99.90;;;;;;5129631;28;20228;-65
2021/03/01 07:30:44;;;;;;;122.90;50.73;;;5.90;99.90;;;;;;5125792;28;20183;-65
2021/03/01 07:33:12;;;;;;;122.67;50.93;;;6.00;99.90;;;;;;5129488;28;20166;-65
2021/03/01 07:35:39;;;;;;;113.47;49.77;;;6.00;99.90;;;;;;5129673;28;20170;-65
2021/03/01 07:38:05;;;;;;;115.43;50.80;;;5.90;99.90;;;;;;5129555;28;20172;-64
2021/03/01 07:40:31;;;;;;;122.03;50.53;;;6.00;99.90;;;;;;5126880;27;20158;-65
2021/03/01 07:42:57;;;;;;;119.13;49.93;;;6.00;99.90;;;;;;5128414;28;20648;-65
2021/03/01 07:45:23;;;;;;;128.63;51.40;;;5.90;99.90;;;;;;5129736;28;20219;-65
2021/03/01 07:47:49;;;;;;;130.83;53.43;;;5.80;99.90;;;;;;5129004;28;20215;-66
2021/03/01 07:50:36;;;;;;;130.27;52.77;;;5.80;99.90;;;;;;5126443;28;20221;-65
2021/03/01 07:53:02;;;;;;;128.53;51.50;;;6.00;99.90;;;;;;5128780;28;20162;-65
2021/03/01 07:55:27;;;;;;;124.00;50.33;;;6.10;99.90;;;;;;5127538;28;20188;-65
2021/03/01 07:58:04;;;;;;;128.47;52.73;;;6.10;99.90;;;;;;5129272;28;20162;-65
2021/03/01 08:00:35;;;;;;;129.40;49.87;;;6.20;99.90;;;;;;5126054;28;20179;-65
2021/03/01 08:03:21;;;;;;;113.87;47.23;;;6.20;99.90;;;;;;5128637;28;20163;-65
2021/03/01 08:05:53;;;;;;;110.53;45.80;;;6.30;99.90;;;;;;5128818;28;20177;-65
2021/03/01 08:08:42;;;;;;;105.03;44.73;;;6.30;99.90;;;;;;5128704;28;20198;-65
2021/03/01 08:11:08;;;;;;;105.03;43.90;;;6.50;99.90;;;;;;5117970;28;20196;-65
2021/03/01 08:13:33;;;;;;;115.73;45.23;;;6.50;99.90;;;;;;5128827;28;20230;-65
2021/03/01 08:16:34;;;;;;;105.90;36.80;;;6.50;99.90;;;;;;5128974;28;20566;-65
2021/03/01 08:19:00;;;;;;;106.13;37.17;;;6.70;99.90;;;;;;5065325;28;20290;-65
2021/03/01 08:21:25;;;;;;;95.43;33.97;;;6.70;99.90;;;;;;5045039;28;20181;-65
2021/03/01 08:23:51;;;;;;;96.33;34.57;;;6.50;99.90;;;;;;5065405;28;20272;-65
2021/03/01 08:26:37;;;;;;;96.37;36.07;;;6.40;99.90;;;;;;5065049;28;21200;-65
2021/03/01 08:29:15;;;;;;;100.43;36.13;;;6.60;99.90;;;;;;5047029;28;20254;-65
2021/03/01 08:31:42;;;;;;;98.57;35.33;;;6.60;99.90;;;;;;5062514;28;20160;-65
2021/03/01 08:34:28;;;;;;;106.70;35.17;;;6.60;99.90;;;;;;5064596;28;20191;-65
2021/03/01 08:36:55;;;;;;;100.80;37.77;;;6.50;99.90;;;;;;5065870;28;20165;-65
2021/03/01 08:39:51;;;;;;;98.93;36.37;;;6.50;99.90;;;;;;5048544;28;20185;-65
2021/03/01 08:42:42;;;;;;;110.07;37.17;;;6.60;99.90;;;;;;5065204;28;20177;-65
2021/03/01 08:45:08;;;;;;;103.70;35.90;;;6.70;99.90;;;;;;5065031;28;20169;-65
2021/03/01 08:47:34;;;;;;;109.70;37.43;;;6.60;99.90;;;;;;5064592;28;20179;-65
2021/03/01 08:50:06;;;;;;;113.30;38.83;;;7.00;99.90;;;;;;5061702;28;20256;-65
2021/03/01 08:52:32;;;;;;;100.30;36.37;;;6.90;99.90;;;;;;5070592;28;20170;-65
2021/03/01 08:55:05;;;;;;;97.87;36.53;;;6.80;99.90;;;;;;5127990;28;20186;-65
2021/03/01 08:57:31;;;;;;;109.83;36.33;;;6.60;99.90;;;;;;5127930;28;20159;-65
2021/03/01 09:00:10;;;;;;;106.80;36.50;;;6.70;99.90;;;;;;5125363;28;20232;-65
2021/03/01 09:02:35;;;;;;;110.87;37.77;;;6.60;99.90;;;;;;5127723;28;20166;-65
2021/03/01 09:05:08;;;;;;;104.87;37.70;;;6.70;99.90;;;;;;5127532;28;20163;-65
2021/03/01 09:07:46;;;;;;;106.73;39.53;;;6.80;99.90;;;;;;5127691;28;20195;-65
2021/03/01 09:10:12;;;;;;;103.67;38.80;;;7.10;99.90;;;;;;5124995;28;20209;-65
2021/03/01 09:12:42;;;;;;;109.30;40.30;;;7.20;99.90;;;;;;5127246;28;20206;-65
2021/03/01 09:15:08;;;;;;;103.33;37.37;;;7.00;99.90;;;;;;5126266;28;20212;-64
2021/03/01 09:17:34;;;;;;;100.27;40.73;;;7.00;99.90;;;;;;5127301;28;20159;-65
2021/03/01 09:20:00;;;;;;;127.57;53.03;;;7.00;99.90;;;;;;5124163;28;20414;-66
2021/03/01 09:22:25;;;;;;;114.43;43.17;;;7.30;99.90;;;;;;5127388;28;20250;-65
2021/03/01 09:24:51;;;;;;;112.93;42.37;;;7.40;99.90;;;;;;5126294;28;20163;-65
2021/03/01 09:27:32;;;;;;;113.30;42.43;;;7.50;99.90;;;;;;5127227;28;20210;-65
2021/03/01 09:30:05;;;;;;;109.83;42.43;;;7.50;99.90;;;;;;5124372;28;20225;-65
2021/03/01 09:32:31;;;;;;;106.97;41.70;;;7.60;99.90;;;;;;5127179;28;20186;-66
2021/03/01 09:34:56;;;;;;;109.30;41.37;;;7.70;99.90;;;;;;5125776;28;20584;-65
2021/03/01 09:37:24;;;;;;;108.73;40.53;;;7.80;99.90;;;;;;5127359;28;20194;-65
2021/03/01 09:39:50;;;;;;;115.97;42.23;;;7.70;99.90;;;;;;5124147;28;20355;-66
2021/03/01 09:42:19;;;;;;;117.57;42.60;;;7.80;99.90;;;;;;5126973;27;20166;-65
2021/03/01 09:44:45;;;;;;;108.17;41.70;;;7.80;99.90;;;;;;5126813;28;20694;-65
2021/03/01 09:47:12;;;;;;;112.80;42.77;;;8.10;99.90;;;;;;5126848;28;20177;-65
2021/03/01 09:49:40;;;;;;;113.07;42.90;;;8.30;99.90;;;;;;5125163;28;20195;-65
2021/03/01 09:52:07;;;;;;;119.60;44.83;;;8.50;99.90;;;;;;5126369;28;20218;-65
2021/03/01 09:54:33;;;;;;;121.27;45.73;;;8.40;99.90;;;;;;5126633;28;20159;-66
2021/03/01 09:57:07;;;;;;;109.90;42.13;;;8.80;99.90;;;;;;5126846;28;20158;-66
2021/03/01 09:59:37;;;;;;;113.90;44.07;;;9.20;99.90;;;;;;5125638;28;20195;-66
2021/03/01 10:02:14;;;;;;;114.30;43.87;;;9.30;99.90;;;;;;5125616;28;20166;-65
2021/03/01 10:04:40;;;;;;;121.90;44.70;;;9.50;99.90;;;;;;5126005;28;20174;-65
2021/03/01 10:07:26;;;;;;;115.50;45.63;;;9.60;99.90;;;;;;5126748;28;20163;-65
2021/03/01 10:09:53;;;;;;;115.67;46.33;;;9.70;99.90;;;;;;5122448;28;20266;-65
2021/03/01 10:12:20;;;;;;;107.77;42.57;;;9.80;99.90;;;;;;5126647;28;20161;-65
2021/03/01 10:14:46;;;;;;;109.53;44.40;;;9.90;99.90;;;;;;5124868;28;20254;-65
2021/03/01 10:17:25;;;;;;;111.93;43.27;;;9.60;99.90;;;;;;5126348;28;20162;-65
2021/03/01 10:19:51;;;;;;;103.40;42.17;;;9.80;99.90;;;;;;5123444;28;20171;-65
2021/03/01 10:22:17;;;;;;;100.53;42.20;;;9.60;99.90;;;;;;5126378;28;20166;-65
2021/03/01 10:24:44;;;;;;;108.13;41.17;;;9.50;99.90;;;;;;5126211;28;20254;-65
2021/03/01 10:27:12;;;;;;;101.73;41.43;;;9.60;99.90;;;;;;5124837;28;20695;-65
2021/03/01 10:29:43;;;;;;;108.53;44.33;;;9.80;99.90;;;;;;5124289;28;20191;-64
2021/03/01 10:32:24;;;;;;;95.73;40.57;;;10.20;99.90;;;;;;5124319;28;20159;-65
2021/03/01 10:34:51;;;;;;;92.10;38.23;;;10.40;99.90;;;;;;5126042;28;20162;-65
2021/03/01 10:37:19;;;;;;;84.70;37.10;;;10.80;99.90;;;;;;5125967;28;20167;-65
2021/03/01 10:39:47;;;;;;;86.20;35.80;;;11.20;99.90;;;;;;5122154;28;20181;-65
2021/03/01 10:42:27;;;;;;;89.07;37.13;;;11.50;99.90;;;;;;5126242;28;20159;-65
2021/03/01 10:44:57;;;;;;;87.13;38.97;;;11.70;99.90;;;;;;5126067;28;20257;-65
2021/03/01 10:47:34;;;;;;;88.25;38.40;;;11.90;99.90;;;;;;5126381;28;20169;-65
2021/03/01 10:50:04;;;;;;;89.72;37.90;;;12.30;99.90;;;;;;5121779;28;20209;-65
2021/03/01 10:52:30;;;;;;;89.60;38.17;;;12.20;99.90;;;;;;5125175;28;20162;-65
2021/03/01 10:54:57;;;;;;;86.35;38.53;;;11.90;99.90;;;;;;5126134;28;20210;-65
2021/03/01 10:57:25;;;;;;;90.72;38.25;;;11.60;99.90;;;;;;5126067;28;20158;-65
2021/03/01 10:59:53;;;;;;;85.17;36.93;;;11.10;99.90;;;;;;5123085;28;20209;-65
2021/03/01 11:02:19;;;;;;;94.77;45.13;;;11.00;99.90;;;;;;5124349;28;20479;-65
2021/03/01 11:04:48;;;;;;;87.47;38.60;;;11.10;99.90;;;;;;5125303;28;20396;-65
2021/03/01 11:07:15;;;;;;;84.65;38.60;;;10.80;99.90;;;;;;5126071;28;20167;-65
2021/03/01 11:09:41;;;;;;;90.30;37.72;;;10.90;99.90;;;;;;5123819;28;20191;-65
2021/03/01 11:12:07;;;;;;;93.90;38.97;;;11.20;99.90;;;;;;5124939;28;20227;-65
2021/03/01 11:14:33;;;;;;;90.97;39.50;;;11.60;99.90;;;;;;5125488;28;20159;-65
2021/03/01 11:16:58;;;;;;;89.13;40.50;;;11.80;99.90;;;;;;5124558;28;20169;-65
2021/03/01 11:19:25;;;;;;;93.55;40.35;;;12.10;99.90;;;;;;5124264;28;20178;-65
2021/03/01 11:21:51;;;;;;;90.55;39.55;;;12.40;99.90;;;;;;5123616;28;20170;-65
2021/03/01 11:24:20;;;;;;;99.47;42.13;;;12.60;99.90;;;;;;5125720;28;20245;-65
2021/03/01 11:26:45;;;;;;;104.78;42.50;;;12.60;99.90;;;;;;5125341;28;20544;-66
2021/03/01 11:29:11;;;;;;;102.95;42.58;;;12.70;99.90;;;;;;5125519;28;20202;-67
2021/03/01 11:31:37;;;;;;;95.43;42.35;;;12.80;99.90;;;;;;5122878;28;20220;-67
2021/03/01 11:34:06;;;;;;;99.38;41.60;;;12.80;99.90;;;;;;5125228;28;20219;-67
2021/03/01 11:36:32;;;;;;;98.38;40.92;;;12.80;99.90;;;;;;5125607;28;20162;-67
2021/03/01 11:38:58;;;;;;;94.85;40.45;;;12.70;99.90;;;;;;5125267;28;20159;-66
2021/03/01 11:41:24;;;;;;;98.07;39.92;;;12.80;99.90;;;;;;5123132;28;20383;-65
2021/03/01 11:43:52;;;;;;;92.85;40.92;;;12.70;99.90;;;;;;5125940;28;20166;-66
2021/03/01 11:46:18;;;;;;;91.80;39.67;;;12.60;99.90;;;;;;5125870;28;20154;-65
2021/03/01 11:48:44;;;;;;;91.15;40.72;;;12.70;99.90;;;;;;5125135;28;20382;-65
2021/03/01 11:51:10;;;;;;;99.10;48.10;;;12.80;99.90;;;;;;5122400;28;20456;-66
2021/03/01 11:53:36;;;;;;;102.35;41.78;;;12.90;99.90;;;;;;5125324;28;20646;-65
2021/03/01 11:56:02;;;;;;;94.90;41.30;;;13.00;99.90;;;;;;5125483;28;20159;-65
2021/03/01 11:58:27;;;;;;;99.90;43.60;;;12.70;99.90;;;;;;5125351;28;20238;-65
2021/03/01 12:00:53;;;;;;;93.88;41.00;;;12.60;99.90;;;;;;5122439;28;20208;-65
2021/03/01 12:03:19;;;;;;;97.68;42.30;;;12.90;99.90;;;;;;5123755;28;20166;-65
2021/03/01 12:05:44;;;;;;;91.45;41.10;;;13.00;99.90;;;;;;5127811;28;20170;-65
2021/03/01 12:08:10;;;;;;;88.78;40.97;;;13.20;99.90;;;;;;5129023;28;20212;-66
2021/03/01 12:10:37;;;;;;;95.15;41.30;;;13.10;99.90;;;;;;5126493;28;20169;-65
2021/03/01 12:13:04;;;;;;;101.55;49.55;;;13.20;99.90;;;;;;5128110;28;20403;-65
2021/03/01 12:15:30;;;;;;;90.72;42.58;;;13.80;99.90;;;;;;5128959;28;20169;-65
2021/03/01 12:17:56;;;;;;;95.60;43.53;;;14.00;99.90;;;;;;5128479;28;20520;-65
2021/03/01 12:20:21;;;;;;;90.18;41.72;;;13.90;99.90;;;;;;5126042;28;20166;-65
2021/03/01 12:22:47;;;;;;;94.15;41.38;;;14.00;99.90;;;;;;5127248;28;20288;-66
2021/03/01 12:25:13;;;;;;;95.82;42.35;;;14.20;99.90;;;;;;5128694;28;20163;-65
2021/03/01 12:27:38;;;;;;;87.07;40.78;;;14.40;99.90;;;;;;5127077;28;20211;-65
2021/03/01 12:30:06;;;;;;;89.47;40.88;;;14.40;99.90;;;;;;5125898;28;20773;-66
2021/03/01 12:32:32;;;;;;;82.07;37.60;;;14.20;99.90;;;;;;5128464;28;20242;-65
2021/03/01 12:34:59;;;;;;;93.93;42.08;;;13.50;99.90;;;;;;5127990;28;20616;-66
2021/03/01 12:37:28;;;;;;;103.43;44.05;;;13.30;99.90;;;;;;5128173;28;20157;-66
2021/03/01 12:39:57;;;;;;;100.63;43.65;;;13.10;99.90;;;;;;5125556;28;20803;-66